createdAt,value
2023-01-09T00:02:11.030Z,3.90
2023-01-09T00:04:38.257Z,3.90
2023-01-09T00:07:05.434Z,4.10
2023-01-09T00:09:33.092Z,3.77
2023-01-09T00:12:00.289Z,3.90
2023-01-09T00:14:27.493Z,4.30
2023-01-09T00:16:58.547Z,4.27
2023-01-09T00:19:25.695Z,4.10
2023-01-09T00:21:52.872Z,3.93
2023-01-09T00:24:20.003Z,4.27
2023-01-09T00:26:47.117Z,4.63
2023-01-09T00:29:15.421Z,4.07
2023-01-09T00:31:42.577Z,4.73
2023-01-09T00:34:12.891Z,4.77
2023-01-09T00:36:40.035Z,4.67
2023-01-09T00:39:07.214Z,4.40
2023-01-09T00:41:47.843Z,4.60
2023-01-09T00:44:18.125Z,4.37
2023-01-09T00:46:51.439Z,4.17
2023-01-09T00:49:19.353Z,4.20
2023-01-09T00:51:46.849Z,3.83
2023-01-09T00:54:15.830Z,4.17
2023-01-09T00:56:43.078Z,4.37
2023-01-09T00:59:10.507Z,3.93
2023-01-09T01:01:37.743Z,4.20
2023-01-09T01:04:25.004Z,4.30
2023-01-09T01:07:10.938Z,4.07
2023-01-09T01:09:38.292Z,4.37
2023-01-09T01:12:07.269Z,4.57
2023-01-09T01:14:35.773Z,4.40
2023-01-09T01:17:03.259Z,4.47
2023-01-09T01:19:30.570Z,4.83
2023-01-09T01:21:58.022Z,4.90
2023-01-09T01:24:25.241Z,4.67
2023-01-09T01:26:52.395Z,5.20
2023-01-09T01:29:20.133Z,4.43
2023-01-09T01:31:47.259Z,4.80
2023-01-09T01:34:14.989Z,5.27
2023-01-09T01:36:42.207Z,5.07
2023-01-09T01:39:09.616Z,5.20
2023-01-09T01:41:38.013Z,5.57
2023-01-09T01:44:06.430Z,5.27
2023-01-09T01:46:34.441Z,5.20
2023-01-09T01:49:07.648Z,5.67
2023-01-09T01:51:36.836Z,5.73
2023-01-09T01:54:07.292Z,4.77
2023-01-09T01:56:38.335Z,4.90
2023-01-09T01:59:05.511Z,5.40
2023-01-09T02:01:33.847Z,5.00
2023-01-09T02:04:02.929Z,5.30
2023-01-09T02:06:31.198Z,5.27
2023-01-09T02:08:58.335Z,4.93
2023-01-09T02:11:25.652Z,5.00
2023-01-09T02:13:53.133Z,4.70
2023-01-09T02:16:29.619Z,5.47
2023-01-09T02:19:13.784Z,4.97
2023-01-09T02:21:50.986Z,5.47
2023-01-09T02:24:29.313Z,5.50
2023-01-09T02:27:02.560Z,5.53
2023-01-09T02:29:44.868Z,5.60
2023-01-09T02:32:33.794Z,5.30
2023-01-09T02:35:19.860Z,5.40
2023-01-09T02:38:13.354Z,5.63
2023-01-09T02:40:45.668Z,5.40
2023-01-09T02:43:13.532Z,5.00
2023-01-09T02:45:40.694Z,4.67
2023-01-09T02:48:13.216Z,4.57
2023-01-09T02:50:48.546Z,4.60
2023-01-09T02:53:18.498Z,4.37
2023-01-09T02:56:04.235Z,4.03
2023-01-09T02:58:33.673Z,4.23
2023-01-09T03:01:20.977Z,4.00
2023-01-09T03:03:49.058Z,3.67
2023-01-09T03:06:31.465Z,4.10
2023-01-09T03:09:02.071Z,4.03
2023-01-09T03:11:31.396Z,3.63
2023-01-09T03:14:02.403Z,3.40
2023-01-09T03:16:33.569Z,3.53
2023-01-09T03:19:01.266Z,5.50
2023-01-09T03:21:28.983Z,2.30
2023-01-09T03:23:57.203Z,1.47
2023-01-09T03:26:24.853Z,1.30
2023-01-09T03:28:52.484Z,2.27
2023-01-09T03:31:19.693Z,2.10
2023-01-09T03:33:46.876Z,1.57
2023-01-09T03:36:14.568Z,1.83
2023-01-09T03:38:41.928Z,1.40
2023-01-09T03:41:11.617Z,1.80
2023-01-09T03:43:38.806Z,1.33
2023-01-09T03:46:06.156Z,1.30
2023-01-09T03:48:33.930Z,1.10
2023-01-09T03:51:01.157Z,1.10
2023-01-09T03:53:28.787Z,0.80
2023-01-09T03:55:57.743Z,1.00
2023-01-09T03:58:26.038Z,1.00
2023-01-09T04:00:57.884Z,1.10
2023-01-09T04:03:25.209Z,0.90
2023-01-09T04:05:53.150Z,0.90
2023-01-09T04:08:20.553Z,0.90
2023-01-09T04:10:48.532Z,1.10
2023-01-09T04:13:16.143Z,0.80
2023-01-09T04:15:43.350Z,1.17
2023-01-09T04:18:10.665Z,0.90
2023-01-09T04:20:37.775Z,0.70
2023-01-09T04:23:04.996Z,0.90
2023-01-09T04:25:34.841Z,0.87
2023-01-09T04:28:02.000Z,0.83
2023-01-09T04:30:29.185Z,0.83
2023-01-09T04:32:56.558Z,0.90
2023-01-09T04:35:23.678Z,0.90
2023-01-09T04:37:50.921Z,0.80
2023-01-09T04:40:18.762Z,0.90
2023-01-09T04:42:46.249Z,0.80
2023-01-09T04:45:15.510Z,0.80
2023-01-09T04:47:43.006Z,0.80
2023-01-09T04:50:11.118Z,1.20
2023-01-09T04:52:39.090Z,1.07
2023-01-09T04:55:07.788Z,0.90
2023-01-09T04:57:35.491Z,1.30
2023-01-09T05:00:02.972Z,1.00
2023-01-09T05:02:30.478Z,1.77
2023-01-09T05:04:57.715Z,2.17
2023-01-09T05:07:24.914Z,1.53
2023-01-09T05:09:52.224Z,2.60
2023-01-09T05:12:19.399Z,1.47
2023-01-09T05:14:46.647Z,1.43
2023-01-09T05:17:13.817Z,0.90
2023-01-09T05:19:41.021Z,0.80
2023-01-09T05:22:08.132Z,0.80
2023-01-09T05:24:35.351Z,0.90
2023-01-09T05:27:02.734Z,0.90
2023-01-09T05:29:29.959Z,0.80
2023-01-09T05:31:57.677Z,0.80
2023-01-09T05:34:25.532Z,0.83
2023-01-09T05:36:52.736Z,0.90
2023-01-09T05:39:19.884Z,1.00
2023-01-09T05:41:47.209Z,0.90
2023-01-09T05:44:14.445Z,0.80
2023-01-09T05:46:41.579Z,0.90
2023-01-09T05:49:08.748Z,1.00
2023-01-09T05:51:35.921Z,0.90
2023-01-09T05:54:04.129Z,1.00
2023-01-09T05:56:31.277Z,0.90
2023-01-09T05:58:58.490Z,1.03
2023-01-09T06:01:25.738Z,1.00
2023-01-09T06:03:52.972Z,0.97
2023-01-09T06:06:20.152Z,1.00
2023-01-09T06:08:47.265Z,0.90
2023-01-09T06:11:14.486Z,1.20
2023-01-09T06:13:41.663Z,1.97
2023-01-09T06:16:09.156Z,11.40
2023-01-09T06:18:36.563Z,25.23
2023-01-09T06:21:03.675Z,3.13
2023-01-09T06:23:30.833Z,5.43
2023-01-09T06:25:58.251Z,1.53
2023-01-09T06:28:25.434Z,1.57
2023-01-09T06:30:53.080Z,1.93
2023-01-09T06:33:20.640Z,1.60
2023-01-09T06:35:47.821Z,1.97
2023-01-09T06:38:15.023Z,1.20
2023-01-09T06:40:42.212Z,1.00
2023-01-09T06:43:09.457Z,0.90
2023-01-09T06:45:36.654Z,1.10
2023-01-09T06:48:03.785Z,1.20
2023-01-09T06:50:31.441Z,1.20
2023-01-09T06:52:58.627Z,1.00
2023-01-09T06:55:26.472Z,1.40
2023-01-09T06:57:54.000Z,1.30
2023-01-09T07:00:21.439Z,1.97
2023-01-09T07:02:48.724Z,1.30
2023-01-09T07:05:16.003Z,1.30
2023-01-09T07:07:43.285Z,1.33
2023-01-09T07:10:11.191Z,1.30
2023-01-09T07:12:38.338Z,1.20
2023-01-09T07:15:05.781Z,1.30
2023-01-09T07:17:32.931Z,1.30
2023-01-09T07:20:00.685Z,1.10
2023-01-09T07:22:28.038Z,1.20
2023-01-09T07:24:55.158Z,1.97
2023-01-09T07:27:22.366Z,1.67
2023-01-09T07:29:51.231Z,1.20
2023-01-09T07:32:18.509Z,1.60
2023-01-09T07:34:45.771Z,1.17
2023-01-09T07:37:13.006Z,1.37
2023-01-09T07:39:40.148Z,1.70
2023-01-09T07:42:07.302Z,2.10
2023-01-09T07:44:34.459Z,2.00
2023-01-09T07:47:01.573Z,1.30
2023-01-09T07:49:28.886Z,1.90
2023-01-09T07:51:56.400Z,1.33
2023-01-09T07:54:23.681Z,1.10
2023-01-09T07:56:50.927Z,1.47
2023-01-09T07:59:18.093Z,1.10
2023-01-09T08:01:45.645Z,1.03
2023-01-09T08:04:13.150Z,1.60
2023-01-09T08:06:40.301Z,1.30
2023-01-09T08:09:07.480Z,1.10
2023-01-09T08:11:34.840Z,1.20
2023-01-09T08:14:03.169Z,1.20
2023-01-09T08:16:30.673Z,1.30
2023-01-09T08:18:57.808Z,1.33
2023-01-09T08:21:24.958Z,1.30
2023-01-09T08:23:52.307Z,1.13
2023-01-09T08:26:19.697Z,1.27
2023-01-09T08:28:47.276Z,1.37
2023-01-09T08:31:14.563Z,1.37
2023-01-09T08:33:41.819Z,1.00
2023-01-09T08:36:09.307Z,1.20
2023-01-09T08:38:36.521Z,1.20
2023-01-09T08:41:23.637Z,1.10
2023-01-09T08:44:09.676Z,1.80
2023-01-09T08:46:55.766Z,1.60
2023-01-09T08:49:22.964Z,1.50
2023-01-09T08:51:50.097Z,2.40
2023-01-09T08:54:17.255Z,3.40
2023-01-09T08:56:44.417Z,3.00
2023-01-09T08:59:11.683Z,2.40
2023-01-09T09:01:39.469Z,1.77
2023-01-09T09:04:06.954Z,1.40
2023-01-09T09:06:34.336Z,1.53
2023-01-09T09:09:06.420Z,1.50
2023-01-09T09:11:34.752Z,1.40
2023-01-09T09:14:23.867Z,1.40
2023-01-09T09:16:52.515Z,1.47
2023-01-09T09:19:19.854Z,1.50
2023-01-09T09:21:47.046Z,1.57
2023-01-09T09:24:15.407Z,1.40
2023-01-09T09:26:44.514Z,1.70
2023-01-09T09:29:11.868Z,1.30
2023-01-09T09:31:39.553Z,1.70
2023-01-09T09:34:07.488Z,1.60
2023-01-09T09:36:35.120Z,1.77
2023-01-09T09:39:02.842Z,1.50
2023-01-09T09:41:48.449Z,1.97
2023-01-09T09:44:54.435Z,1.40
2023-01-09T09:47:33.967Z,1.43
2023-01-09T09:50:01.205Z,1.50
2023-01-09T09:52:50.623Z,1.87
2023-01-09T09:55:33.069Z,1.40
2023-01-09T09:58:01.962Z,1.50
2023-01-09T10:00:29.695Z,1.60
2023-01-09T10:03:03.340Z,1.63
2023-01-09T10:05:57.255Z,1.50
2023-01-09T10:08:46.150Z,1.70
2023-01-09T10:11:16.779Z,1.80
2023-01-09T10:14:04.210Z,1.70
2023-01-09T10:16:51.646Z,1.20
2023-01-09T10:19:37.692Z,1.17
2023-01-09T10:22:25.114Z,1.53
2023-01-09T10:24:55.374Z,1.77
2023-01-09T10:27:36.528Z,1.50
2023-01-09T10:30:03.677Z,1.30
2023-01-09T10:32:33.973Z,1.30
2023-01-09T10:35:13.425Z,1.43
2023-01-09T10:37:45.897Z,1.40
2023-01-09T10:40:25.409Z,1.30
2023-01-09T10:42:59.505Z,1.50
2023-01-09T10:45:32.369Z,1.50
2023-01-09T10:48:05.973Z,1.50
2023-01-09T10:50:38.231Z,1.50
2023-01-09T10:53:21.598Z,1.63
2023-01-09T10:55:49.460Z,2.10
2023-01-09T10:58:21.552Z,1.43
2023-01-09T11:00:49.797Z,2.07
2023-01-09T11:03:21.799Z,1.43
2023-01-09T11:05:51.430Z,1.70
2023-01-09T11:08:41.853Z,1.40
2023-01-09T11:11:09.350Z,2.60
2023-01-09T11:13:38.470Z,2.10
2023-01-09T11:16:11.778Z,2.13
2023-01-09T11:18:40.718Z,1.47
2023-01-09T11:21:35.902Z,1.53
2023-01-09T11:24:26.621Z,1.73
2023-01-09T11:27:14.143Z,1.40
2023-01-09T11:29:42.432Z,1.70
2023-01-09T11:32:22.848Z,2.00
2023-01-09T11:34:50.132Z,1.73
2023-01-09T11:37:23.462Z,2.00
2023-01-09T11:39:51.232Z,1.80
2023-01-09T11:42:40.658Z,7.13
2023-01-09T11:45:18.777Z,1.73
2023-01-09T11:47:46.326Z,1.97
2023-01-09T11:50:13.458Z,1.63
2023-01-09T11:52:40.607Z,1.80
2023-01-09T11:55:12.041Z,1.73
2023-01-09T11:57:39.138Z,2.00
2023-01-09T12:00:24.404Z,1.77
2023-01-09T12:02:58.820Z,1.80
2023-01-09T12:05:28.877Z,2.00
2023-01-09T12:08:06.969Z,2.30
2023-01-09T12:10:54.451Z,1.30
2023-01-09T12:13:21.693Z,1.50
2023-01-09T12:15:57.957Z,1.50
2023-01-09T12:18:44.010Z,1.73
2023-01-09T12:21:14.222Z,1.60
2023-01-09T12:24:00.494Z,1.57
2023-01-09T12:26:33.590Z,1.60
2023-01-09T12:29:07.549Z,1.20
2023-01-09T12:31:37.830Z,1.70
2023-01-09T12:34:23.919Z,1.63
2023-01-09T12:37:11.728Z,1.60
2023-01-09T12:39:45.255Z,1.47
2023-01-09T12:42:12.435Z,1.80
2023-01-09T12:44:42.716Z,2.10
2023-01-09T12:47:20.081Z,1.40
2023-01-09T12:50:04.155Z,1.40
2023-01-09T12:52:47.813Z,1.60
2023-01-09T12:55:26.020Z,1.40
2023-01-09T12:57:56.356Z,1.67
2023-01-09T13:00:23.623Z,1.70
2023-01-09T13:03:07.213Z,2.13
2023-01-09T13:05:44.013Z,1.40
2023-01-09T13:08:30.197Z,1.57
2023-01-09T13:11:19.927Z,1.73
2023-01-09T13:13:48.328Z,1.50
2023-01-09T13:16:19.578Z,1.50
2023-01-09T13:18:50.226Z,1.70
2023-01-09T13:21:17.744Z,1.57
2023-01-09T13:23:44.939Z,1.60
2023-01-09T13:26:16.052Z,1.50
2023-01-09T13:28:47.104Z,1.67
2023-01-09T13:31:36.310Z,1.50
2023-01-09T13:34:08.699Z,1.30
2023-01-09T13:36:39.706Z,1.20
2023-01-09T13:39:07.257Z,1.50
2023-01-09T13:42:05.820Z,1.20
2023-01-09T13:44:34.569Z,1.30
2023-01-09T13:47:03.256Z,1.30
2023-01-09T13:49:31.167Z,1.27
2023-01-09T13:52:00.603Z,1.10
2023-01-09T13:54:46.702Z,1.20
2023-01-09T13:57:17.083Z,1.13
2023-01-09T13:59:45.001Z,1.40
2023-01-09T14:02:31.016Z,1.50
2023-01-09T14:04:58.189Z,1.40
2023-01-09T14:07:29.573Z,1.23
2023-01-09T14:10:08.596Z,1.20
2023-01-09T14:12:42.708Z,1.23
2023-01-09T14:15:26.834Z,1.30
2023-01-09T14:18:02.307Z,1.40
2023-01-09T14:20:39.959Z,3.10
2023-01-09T14:23:31.571Z,4.27
2023-01-09T14:25:54.748Z,2.47
2023-01-09T14:28:27.826Z,1.73
2023-01-09T14:30:57.278Z,1.60
2023-01-09T14:33:25.870Z,1.50
2023-01-09T14:35:55.868Z,1.50
2023-01-09T14:38:29.317Z,4.10
2023-01-09T14:41:16.807Z,3.70
2023-01-09T14:43:53.493Z,1.30
2023-01-09T14:46:21.951Z,1.47
2023-01-09T14:49:27.961Z,1.30
2023-01-09T14:51:56.166Z,1.23
2023-01-09T14:54:37.896Z,1.40
2023-01-09T14:57:23.385Z,1.30
2023-01-09T15:00:07.489Z,1.30
2023-01-09T15:02:36.817Z,1.10
2023-01-09T15:05:09.185Z,0.97
2023-01-09T15:07:56.707Z,1.30
2023-01-09T15:10:25.956Z,1.20
2023-01-09T15:12:54.840Z,1.10
2023-01-09T15:15:22.944Z,1.10
2023-01-09T15:17:55.139Z,1.20
2023-01-09T15:20:28.810Z,1.40
2023-01-09T15:22:56.364Z,1.20
2023-01-09T15:25:38.019Z,1.33
2023-01-09T15:28:29.031Z,1.30
2023-01-09T15:31:08.947Z,3.30
2023-01-09T15:33:36.180Z,1.53
2023-01-09T15:36:06.345Z,1.50
2023-01-09T15:38:36.290Z,1.47
2023-01-09T15:41:10.827Z,1.40
2023-01-09T15:43:41.415Z,1.60
2023-01-09T15:46:08.746Z,1.57
2023-01-09T15:48:36.443Z,1.83
2023-01-09T15:51:12.006Z,1.30
2023-01-09T15:53:40.780Z,2.00
2023-01-09T15:56:16.761Z,2.20
2023-01-09T15:58:47.193Z,1.80
2023-01-09T16:01:20.948Z,8.20
2023-01-09T16:03:48.369Z,1.97
2023-01-09T16:06:18.713Z,6.07
2023-01-09T16:08:52.482Z,2.40
2023-01-09T16:11:23.150Z,4.00
2023-01-09T16:13:51.415Z,1.33
2023-01-09T16:16:30.041Z,1.83
2023-01-09T16:18:57.756Z,1.57
2023-01-09T16:21:33.283Z,1.47
2023-01-09T16:24:03.600Z,1.50
2023-01-09T16:26:31.293Z,2.60
2023-01-09T16:29:18.441Z,2.20
2023-01-09T16:31:45.772Z,1.10
2023-01-09T16:34:13.831Z,1.27
2023-01-09T16:36:41.112Z,1.50
2023-01-09T16:39:15.072Z,2.10
2023-01-09T16:42:01.898Z,2.00
2023-01-09T16:44:29.373Z,2.17
2023-01-09T16:46:56.964Z,1.70
2023-01-09T16:49:27.729Z,2.20
2023-01-09T16:51:55.379Z,1.87
2023-01-09T16:54:22.875Z,1.57
2023-01-09T16:56:51.451Z,1.60
2023-01-09T16:59:24.698Z,1.60
2023-01-09T17:01:52.628Z,1.60
2023-01-09T17:04:20.321Z,1.33
2023-01-09T17:06:50.084Z,1.23
2023-01-09T17:09:18.573Z,2.60
2023-01-09T17:11:45.783Z,2.00
2023-01-09T17:14:13.809Z,1.53
2023-01-09T17:16:45.646Z,2.40
2023-01-09T17:19:20.663Z,1.60
2023-01-09T17:21:48.149Z,1.30
2023-01-09T17:24:34.253Z,3.20
2023-01-09T17:27:21.363Z,2.47
2023-01-09T17:29:49.160Z,1.53
2023-01-09T17:32:17.295Z,1.60
2023-01-09T17:34:44.871Z,1.20
2023-01-09T17:37:16.194Z,1.37
2023-01-09T17:39:43.789Z,1.23
2023-01-09T17:42:10.971Z,1.60
2023-01-09T17:44:38.491Z,1.20
2023-01-09T17:47:07.795Z,1.90
2023-01-09T17:49:34.973Z,1.30
2023-01-09T17:52:02.130Z,1.40
2023-01-09T17:54:29.615Z,1.40
2023-01-09T17:56:56.915Z,1.13
2023-01-09T17:59:25.440Z,1.40
2023-01-09T18:01:53.916Z,2.13
2023-01-09T18:04:21.088Z,1.70
2023-01-09T18:06:49.498Z,2.00
2023-01-09T18:09:17.935Z,1.73
2023-01-09T18:11:45.693Z,2.00
2023-01-09T18:14:13.905Z,2.30
2023-01-09T18:16:41.605Z,2.20
2023-01-09T18:19:09.907Z,1.53
2023-01-09T18:21:37.036Z,2.03
2023-01-09T18:24:04.254Z,1.60
2023-01-09T18:26:31.441Z,2.90
2023-01-09T18:28:59.678Z,1.60
2023-01-09T18:31:27.659Z,1.80
2023-01-09T18:33:56.547Z,1.33
2023-01-09T18:36:30.802Z,1.43
2023-01-09T18:38:59.311Z,1.67
2023-01-09T18:41:26.827Z,4.50
2023-01-09T18:43:55.124Z,3.93
2023-01-09T18:46:25.343Z,1.50
2023-01-09T18:48:53.590Z,1.30
2023-01-09T18:51:21.487Z,1.40
2023-01-09T18:53:48.744Z,1.40
2023-01-09T18:56:16.374Z,1.30
2023-01-09T18:58:43.691Z,1.10
2023-01-09T19:01:11.122Z,1.17
2023-01-09T19:03:38.390Z,1.30
2023-01-09T19:06:05.713Z,1.60
2023-01-09T19:08:34.165Z,1.30
2023-01-09T19:11:01.392Z,1.80
2023-01-09T19:13:32.728Z,1.43
2023-01-09T19:16:00.056Z,1.97
2023-01-09T19:18:27.734Z,1.40
2023-01-09T19:20:55.686Z,1.90
2023-01-09T19:23:26.230Z,1.50
2023-01-09T19:25:54.007Z,3.00
2023-01-09T19:28:21.388Z,2.77
2023-01-09T19:30:48.715Z,1.50
2023-01-09T19:33:16.058Z,1.70
2023-01-09T19:35:45.445Z,1.70
2023-01-09T19:38:12.600Z,1.70
2023-01-09T19:40:39.838Z,1.47
2023-01-09T19:43:07.243Z,1.57
2023-01-09T19:45:38.670Z,1.20
2023-01-09T19:48:06.124Z,1.30
2023-01-09T19:50:34.122Z,1.10
2023-01-09T19:53:01.405Z,1.20
2023-01-09T19:55:28.534Z,1.10
2023-01-09T19:57:55.732Z,1.20
2023-01-09T20:00:23.440Z,1.17
2023-01-09T20:02:51.336Z,1.10
2023-01-09T20:05:18.617Z,1.20
2023-01-09T20:07:45.792Z,2.00
2023-01-09T20:10:13.037Z,1.90
2023-01-09T20:12:40.552Z,2.90
2023-01-09T20:15:13.505Z,2.67
2023-01-09T20:17:40.607Z,4.10
2023-01-09T20:20:08.301Z,1.47
2023-01-09T20:22:36.542Z,4.20
2023-01-09T20:25:03.823Z,4.27
2023-01-09T20:27:30.954Z,3.13
2023-01-09T20:29:58.203Z,9.73
2023-01-09T20:32:25.701Z,4.97
2023-01-09T20:34:52.897Z,2.83
2023-01-09T20:37:20.117Z,5.00
2023-01-09T20:39:47.513Z,9.77
2023-01-09T20:42:15.022Z,2.97
2023-01-09T20:44:42.196Z,1.77
2023-01-09T20:47:09.372Z,1.43
2023-01-09T20:49:36.576Z,1.33
2023-01-09T20:52:04.117Z,1.73
2023-01-09T20:54:31.250Z,1.20
2023-01-09T20:56:58.550Z,1.60
2023-01-09T20:59:25.660Z,2.23
2023-01-09T21:01:52.970Z,1.80
2023-01-09T21:04:20.599Z,1.60
2023-01-09T21:06:49.988Z,1.47
2023-01-09T21:09:17.884Z,1.97
2023-01-09T21:11:45.095Z,1.60
2023-01-09T21:14:12.268Z,1.60
2023-01-09T21:16:40.197Z,1.80
2023-01-09T21:19:07.448Z,1.70
2023-01-09T21:21:36.725Z,1.60
2023-01-09T21:24:04.590Z,1.90
2023-01-09T21:26:31.826Z,5.93
2023-01-09T21:29:00.666Z,6.03
2023-01-09T21:31:34.936Z,2.80
2023-01-09T21:34:04.551Z,2.93
2023-01-09T21:36:31.912Z,1.50
2023-01-09T21:38:59.675Z,1.53
2023-01-09T21:41:45.523Z,2.57
2023-01-09T21:44:32.181Z,2.67
2023-01-09T21:47:00.468Z,2.30
2023-01-09T21:49:31.521Z,1.70
2023-01-09T21:51:58.911Z,2.10
2023-01-09T21:54:26.128Z,2.10
2023-01-09T21:56:53.602Z,2.17
2023-01-09T21:59:20.778Z,2.03
2023-01-09T22:01:51.180Z,5.23
2023-01-09T22:04:19.680Z,1.90
2023-01-09T22:06:46.930Z,1.50
2023-01-09T22:09:14.264Z,1.40
2023-01-09T22:11:42.841Z,1.50
2023-01-09T22:14:15.235Z,1.50
2023-01-09T22:16:43.740Z,1.63
2023-01-09T22:19:11.608Z,1.80
2023-01-09T22:21:38.947Z,1.50
2023-01-09T22:24:06.461Z,1.53
2023-01-09T22:26:35.127Z,1.50
2023-01-09T22:29:02.519Z,1.70
2023-01-09T22:31:30.181Z,1.50
2023-01-09T22:33:58.446Z,1.60
2023-01-09T22:36:26.372Z,1.60
2023-01-09T22:38:54.970Z,1.60
2023-01-09T22:41:22.483Z,1.63
2023-01-09T22:43:49.915Z,1.53
2023-01-09T22:46:17.193Z,1.40
2023-01-09T22:48:44.446Z,1.47
2023-01-09T22:51:11.914Z,1.73
2023-01-09T22:53:39.074Z,1.53
2023-01-09T22:56:10.722Z,1.43
2023-01-09T22:58:37.932Z,1.70
2023-01-09T23:01:06.144Z,1.40
2023-01-09T23:03:33.694Z,1.57
2023-01-09T23:06:08.686Z,1.60
2023-01-09T23:08:36.222Z,1.50
2023-01-09T23:11:04.415Z,1.80
2023-01-09T23:13:31.540Z,1.30
2023-01-09T23:15:58.830Z,1.40
2023-01-09T23:18:26.032Z,1.93
2023-01-09T23:21:11.463Z,4.87
2023-01-09T23:23:38.807Z,2.40
2023-01-09T23:26:05.970Z,2.30
2023-01-09T23:28:33.147Z,1.90
2023-01-09T23:31:00.346Z,2.20
2023-01-09T23:33:27.495Z,2.60
2023-01-09T23:35:54.645Z,2.57
2023-01-09T23:38:21.787Z,1.80
2023-01-09T23:40:49.101Z,2.10
2023-01-09T23:43:16.361Z,2.20
2023-01-09T23:45:44.903Z,1.90
2023-01-09T23:48:13.350Z,2.13
2023-01-09T23:50:43.905Z,1.60
2023-01-09T23:53:11.381Z,2.50
2023-01-09T23:55:38.674Z,3.60
2023-01-09T23:58:05.833Z,2.57
